createdAt,value
2022-11-06T00:00:32.949Z,19.60
2022-11-06T00:03:01.801Z,21.23
2022-11-06T00:05:49.270Z,24.50
2022-11-06T00:08:44.720Z,22.30
2022-11-06T00:11:15.499Z,23.80
2022-11-06T00:13:43.862Z,21.87
2022-11-06T00:16:12.887Z,26.60
2022-11-06T00:18:40.947Z,26.60
2022-11-06T00:21:14.252Z,25.63
2022-11-06T00:23:42.684Z,30.03
2022-11-06T00:26:14.199Z,22.60
2022-11-06T00:28:42.756Z,30.13
2022-11-06T00:31:15.374Z,28.43
2022-11-06T00:33:43.493Z,32.53
2022-11-06T00:36:14.989Z,29.63
2022-11-06T00:38:43.984Z,37.97
2022-11-06T00:41:14.509Z,36.40
2022-11-06T00:43:42.577Z,44.97
2022-11-06T00:46:12.791Z,31.50
2022-11-06T00:48:41.700Z,26.93
2022-11-06T00:51:18.940Z,27.23
2022-11-06T00:53:47.019Z,27.70
2022-11-06T00:56:19.368Z,22.53
2022-11-06T00:58:48.447Z,27.07
2022-11-06T01:01:17.862Z,30.60
2022-11-06T01:03:47.573Z,22.73
2022-11-06T01:06:20.388Z,20.63
2022-11-06T01:08:49.086Z,26.00
2022-11-06T01:11:37.519Z,24.00
2022-11-06T01:14:16.992Z,32.20
2022-11-06T01:16:45.659Z,24.53
2022-11-06T01:19:15.070Z,26.17
2022-11-06T01:21:44.783Z,26.83
2022-11-06T01:24:19.902Z,24.30
2022-11-06T01:27:05.331Z,23.93
2022-11-06T01:29:36.550Z,29.97
2022-11-06T01:32:05.444Z,27.23
2022-11-06T01:34:34.255Z,31.30
2022-11-06T01:37:02.625Z,29.03
2022-11-06T01:39:29.934Z,27.83
2022-11-06T01:41:57.507Z,26.93
2022-11-06T01:44:34.133Z,29.77
2022-11-06T01:47:05.554Z,33.07
2022-11-06T01:49:39.156Z,37.77
2022-11-06T01:52:10.566Z,48.27
2022-11-06T01:54:41.809Z,40.63
2022-11-06T01:57:11.167Z,42.00
2022-11-06T01:59:45.174Z,35.27
2022-11-06T02:02:16.393Z,30.93
2022-11-06T02:04:48.345Z,48.87
2022-11-06T02:07:18.043Z,56.10
2022-11-06T02:09:45.659Z,40.80
2022-11-06T02:12:47.159Z,41.23
2022-11-06T02:15:22.591Z,48.03
2022-11-06T02:17:52.927Z,46.47
2022-11-06T02:20:37.936Z,47.13
2022-11-06T02:23:28.313Z,51.03
2022-11-06T02:26:21.155Z,43.63
2022-11-06T02:28:56.123Z,45.60
2022-11-06T02:31:32.134Z,40.63
2022-11-06T02:34:08.556Z,48.37
2022-11-06T02:36:55.437Z,44.17
2022-11-06T02:39:27.534Z,38.37
2022-11-06T02:41:57.801Z,39.40
2022-11-06T02:44:31.495Z,37.53
2022-11-06T02:47:05.067Z,30.43
2022-11-06T02:49:43.050Z,36.67
2022-11-06T02:52:23.352Z,33.90
2022-11-06T02:54:56.785Z,36.93
2022-11-06T02:57:27.121Z,30.60
2022-11-06T03:00:14.016Z,26.17
2022-11-06T03:03:02.389Z,29.77
2022-11-06T03:05:47.289Z,25.53
2022-11-06T03:08:35.633Z,30.13
2022-11-06T03:11:03.321Z,26.37
2022-11-06T03:13:44.850Z,29.33
2022-11-06T03:16:30.926Z,27.50
2022-11-06T03:19:06.833Z,23.17
2022-11-06T03:21:56.242Z,21.63
2022-11-06T03:24:33.879Z,28.20
2022-11-06T03:27:10.741Z,26.33
2022-11-06T03:29:49.724Z,29.43
2022-11-06T03:32:30.184Z,29.57
2022-11-06T03:35:09.439Z,26.00
2022-11-06T03:37:42.724Z,32.03
2022-11-06T03:40:15.636Z,30.17
2022-11-06T03:42:45.084Z,35.30
2022-11-06T03:45:20.326Z,30.07
2022-11-06T03:47:54.620Z,33.07
2022-11-06T03:50:34.412Z,26.80
2022-11-06T03:53:34.254Z,26.10
2022-11-06T03:56:18.548Z,31.67
2022-11-06T03:58:49.679Z,25.93
2022-11-06T04:01:23.886Z,32.97
2022-11-06T04:04:16.433Z,25.90
2022-11-06T04:06:57.525Z,33.43
2022-11-06T04:09:47.848Z,37.77
2022-11-06T04:12:38.801Z,32.07
2022-11-06T04:15:09.712Z,30.50
2022-11-06T04:17:38.803Z,32.70
2022-11-06T04:20:11.120Z,43.77
2022-11-06T04:23:12.557Z,38.63
2022-11-06T04:26:26.382Z,29.03
2022-11-06T04:29:05.395Z,32.80
2022-11-06T04:31:43.098Z,33.97
2022-11-06T04:34:38.338Z,30.67
2022-11-06T04:37:17.517Z,31.33
2022-11-06T04:39:56.683Z,37.50
2022-11-06T04:42:43.452Z,29.77
2022-11-06T04:45:28.770Z,30.60
2022-11-06T04:47:57.160Z,27.37
2022-11-06T04:50:27.348Z,32.10
2022-11-06T04:52:55.969Z,41.27
2022-11-06T04:55:23.632Z,32.67
2022-11-06T04:57:51.504Z,28.73
2022-11-06T05:00:19.155Z,27.40
2022-11-06T05:02:46.753Z,31.40
2022-11-06T05:05:14.030Z,29.47
2022-11-06T05:07:41.584Z,29.90
2022-11-06T05:10:10.019Z,36.90
2022-11-06T05:12:37.648Z,34.07
2022-11-06T05:15:05.281Z,39.27
2022-11-06T05:17:36.311Z,30.33
2022-11-06T05:20:05.012Z,40.97
2022-11-06T05:22:51.140Z,52.60
2022-11-06T05:25:18.324Z,51.00
2022-11-06T05:27:46.252Z,46.43
2022-11-06T05:30:13.667Z,44.17
2022-11-06T05:32:41.624Z,36.40
2022-11-06T05:35:09.534Z,43.10
2022-11-06T05:37:37.056Z,37.73
2022-11-06T05:40:05.362Z,41.30
2022-11-06T05:42:32.881Z,42.07
2022-11-06T05:45:00.253Z,36.07
2022-11-06T05:47:27.790Z,40.07
2022-11-06T05:49:55.595Z,42.03
2022-11-06T05:52:23.152Z,46.67
2022-11-06T05:54:50.485Z,44.40
2022-11-06T05:57:18.225Z,46.23
2022-11-06T05:59:45.715Z,36.20
2022-11-06T06:02:13.319Z,37.10
2022-11-06T06:04:40.645Z,40.27
2022-11-06T06:07:08.660Z,30.43
2022-11-06T06:09:36.265Z,37.53
2022-11-06T06:12:03.939Z,30.97
2022-11-06T06:14:31.150Z,37.70
2022-11-06T06:16:58.696Z,33.40
2022-11-06T06:19:26.079Z,31.73
2022-11-06T06:21:53.629Z,25.20
2022-11-06T06:24:21.114Z,35.97
2022-11-06T06:26:48.817Z,33.67
2022-11-06T06:29:16.656Z,30.73
2022-11-06T06:31:44.261Z,36.60
2022-11-06T06:34:11.731Z,29.63
2022-11-06T06:36:39.379Z,34.93
2022-11-06T06:39:06.694Z,35.83
2022-11-06T06:41:34.439Z,35.70
2022-11-06T06:44:01.710Z,31.10
2022-11-06T06:46:29.396Z,34.97
2022-11-06T06:48:56.636Z,35.57
2022-11-06T06:51:24.431Z,35.87
2022-11-06T06:53:52.225Z,38.83
2022-11-06T06:56:20.691Z,51.67
2022-11-06T06:58:48.680Z,63.10
2022-11-06T07:01:16.581Z,88.67
2022-11-06T07:03:44.015Z,112.80
2022-11-06T07:06:11.990Z,97.57
2022-11-06T07:08:39.431Z,71.47
2022-11-06T07:11:09.207Z,58.63
2022-11-06T07:13:36.805Z,53.30
2022-11-06T07:16:06.540Z,54.70
2022-11-06T07:18:35.082Z,56.60
2022-11-06T07:21:06.102Z,75.43
2022-11-06T07:23:35.231Z,68.17
2022-11-06T07:26:04.246Z,82.50
2022-11-06T07:28:31.963Z,83.20
2022-11-06T07:31:01.329Z,76.30
2022-11-06T07:33:29.548Z,78.23
2022-11-06T07:36:02.211Z,61.47
2022-11-06T07:38:29.449Z,53.77
2022-11-06T07:41:00.898Z,47.00
2022-11-06T07:43:28.176Z,47.30
2022-11-06T07:46:00.948Z,41.93
2022-11-06T07:48:29.120Z,49.93
2022-11-06T07:50:57.055Z,50.13
2022-11-06T07:53:25.164Z,49.73
2022-11-06T07:55:54.485Z,46.60
2022-11-06T07:58:22.862Z,44.87
2022-11-06T08:00:56.080Z,38.57
2022-11-06T08:03:25.073Z,38.13
2022-11-06T08:05:52.733Z,40.63
2022-11-06T08:08:20.077Z,40.53
2022-11-06T08:10:47.909Z,45.23
2022-11-06T08:13:18.006Z,42.17
2022-11-06T08:15:45.782Z,38.97
2022-11-06T08:18:13.599Z,40.67
2022-11-06T08:20:41.777Z,40.67
2022-11-06T08:23:11.672Z,43.50
2022-11-06T08:25:40.060Z,44.07
2022-11-06T08:28:07.633Z,51.90
2022-11-06T08:30:35.204Z,46.00
2022-11-06T08:33:05.610Z,44.03
2022-11-06T08:35:35.322Z,42.40
2022-11-06T08:38:03.359Z,44.60
2022-11-06T08:40:31.935Z,51.00
2022-11-06T08:43:04.572Z,37.90
2022-11-06T08:45:32.917Z,34.40
2022-11-06T08:48:04.641Z,39.23
2022-11-06T08:50:33.302Z,27.83
2022-11-06T08:53:04.473Z,39.43
2022-11-06T08:55:32.827Z,23.27
2022-11-06T08:58:01.380Z,32.23
2022-11-06T09:00:29.657Z,33.43
2022-11-06T09:03:06.402Z,32.73
2022-11-06T09:05:34.565Z,31.43
2022-11-06T09:08:02.076Z,28.13
2022-11-06T09:10:29.729Z,33.73
2022-11-06T09:12:59.438Z,27.57
2022-11-06T09:15:27.626Z,26.40
2022-11-06T09:17:55.207Z,30.07
2022-11-06T09:20:25.029Z,28.07
2022-11-06T09:22:53.297Z,24.23
2022-11-06T09:25:22.075Z,30.50
2022-11-06T09:27:58.952Z,30.77
2022-11-06T09:30:29.939Z,30.13
2022-11-06T09:33:00.594Z,22.17
2022-11-06T09:35:31.944Z,27.43
2022-11-06T09:38:08.092Z,18.47
2022-11-06T09:40:51.583Z,20.10
2022-11-06T09:44:04.789Z,22.00
2022-11-06T09:46:52.193Z,23.07
2022-11-06T09:49:31.799Z,27.33
2022-11-06T09:52:23.727Z,16.33
2022-11-06T09:54:58.669Z,17.10
2022-11-06T09:57:47.799Z,16.83
2022-11-06T10:00:17.158Z,15.13
2022-11-06T10:02:48.333Z,11.57
2022-11-06T10:05:35.428Z,18.23
2022-11-06T10:08:26.064Z,16.50
2022-11-06T10:11:06.372Z,13.60
2022-11-06T10:14:00.959Z,15.07
2022-11-06T10:16:32.253Z,14.67
2022-11-06T10:19:33.541Z,11.63
2022-11-06T10:22:17.694Z,14.97
2022-11-06T10:24:58.571Z,13.17
2022-11-06T10:27:28.665Z,13.02
2022-11-06T10:30:32.693Z,8.60
2022-11-06T10:33:31.812Z,11.95
2022-11-06T10:36:22.723Z,12.25
2022-11-06T10:38:52.640Z,16.63
2022-11-06T10:41:26.292Z,12.45
2022-11-06T10:43:58.230Z,16.73
2022-11-06T10:46:36.716Z,11.43
2022-11-06T10:49:21.409Z,15.93
2022-11-06T10:51:57.819Z,12.27
2022-11-06T10:55:16.136Z,9.40
2022-11-06T10:57:57.698Z,7.60
2022-11-06T11:00:25.824Z,9.60
2022-11-06T11:02:57.297Z,12.18
2022-11-06T11:05:26.963Z,94.75
2022-11-06T11:07:55.395Z,15.57
2022-11-06T11:10:36.769Z,15.68
2022-11-06T11:13:08.711Z,13.02
2022-11-06T11:15:48.047Z,18.30
2022-11-06T11:18:22.421Z,15.02
2022-11-06T11:20:52.447Z,15.65
2022-11-06T11:23:25.910Z,26.17
2022-11-06T11:25:55.808Z,21.23
2022-11-06T11:28:31.565Z,20.27
2022-11-06T11:31:09.654Z,11.35
2022-11-06T11:33:39.247Z,18.75
2022-11-06T11:36:09.032Z,26.60
2022-11-06T11:38:39.113Z,16.58
2022-11-06T11:41:24.145Z,18.83
2022-11-06T11:44:13.471Z,14.40
2022-11-06T11:46:54.429Z,18.67
2022-11-06T11:49:33.955Z,14.32
2022-11-06T11:52:04.276Z,16.25
2022-11-06T11:54:36.055Z,12.43
2022-11-06T11:57:07.658Z,16.08
2022-11-06T11:59:49.609Z,11.85
2022-11-06T12:02:28.145Z,10.73
2022-11-06T12:05:18.561Z,14.35
2022-11-06T12:07:57.503Z,13.57
2022-11-06T12:10:38.085Z,17.38
2022-11-06T12:13:24.989Z,11.18
2022-11-06T12:16:15.248Z,11.60
2022-11-06T12:18:57.622Z,13.05
2022-11-06T12:21:40.205Z,9.80
2022-11-06T12:24:24.015Z,11.05
2022-11-06T12:26:56.231Z,9.57
2022-11-06T12:29:35.952Z,13.13
2022-11-06T12:32:15.611Z,7.90
2022-11-06T12:34:57.299Z,9.38
2022-11-06T12:37:41.167Z,11.88
2022-11-06T12:40:25.862Z,11.80
2022-11-06T12:43:21.456Z,9.73
2022-11-06T12:46:22.239Z,13.30
2022-11-06T12:49:14.336Z,9.13
2022-11-06T12:51:44.510Z,9.60
2022-11-06T12:54:30.844Z,12.73
2022-11-06T12:57:04.507Z,10.52
2022-11-06T12:59:56.990Z,8.95
2022-11-06T13:02:55.981Z,9.43
2022-11-06T13:05:29.857Z,9.55
2022-11-06T13:08:05.881Z,11.43
2022-11-06T13:10:45.502Z,12.70
2022-11-06T13:13:23.256Z,16.23
2022-11-06T13:16:13.107Z,14.35
2022-11-06T13:18:53.193Z,16.38
2022-11-06T13:21:27.195Z,13.00
2022-11-06T13:24:08.038Z,13.30
2022-11-06T13:26:48.042Z,11.98
2022-11-06T13:29:17.856Z,15.55
2022-11-06T13:31:49.350Z,16.48
2022-11-06T13:34:24.114Z,11.90
2022-11-06T13:36:53.421Z,9.98
2022-11-06T13:39:33.490Z,11.82
2022-11-06T13:42:02.771Z,13.25
2022-11-06T13:44:31.200Z,11.82
2022-11-06T13:47:09.154Z,13.57
2022-11-06T13:50:05.024Z,11.65
2022-11-06T13:53:07.867Z,11.40
2022-11-06T13:55:54.203Z,10.23
2022-11-06T13:58:41.010Z,14.05
2022-11-06T14:01:27.386Z,12.60
2022-11-06T14:04:19.927Z,11.95
2022-11-06T14:06:52.031Z,12.85
2022-11-06T14:09:24.350Z,13.13
2022-11-06T14:11:58.803Z,16.17
2022-11-06T14:14:29.468Z,17.80
2022-11-06T14:17:12.484Z,14.02
2022-11-06T14:19:47.605Z,12.27
2022-11-06T14:22:30.689Z,17.23
2022-11-06T14:25:02.043Z,13.90
2022-11-06T14:27:30.127Z,19.07
2022-11-06T14:30:17.917Z,17.40
2022-11-06T14:32:48.375Z,21.43
2022-11-06T14:35:31.273Z,16.17
2022-11-06T14:38:11.979Z,18.60
2022-11-06T14:40:40.251Z,26.70
2022-11-06T14:43:27.292Z,23.07
2022-11-06T14:46:00.845Z,22.67
2022-11-06T14:48:50.487Z,26.33
2022-11-06T14:51:26.980Z,20.83
2022-11-06T14:53:59.432Z,19.50
2022-11-06T14:56:33.790Z,22.57
2022-11-06T14:59:09.292Z,22.33
2022-11-06T15:01:37.862Z,19.43
2022-11-06T15:04:14.981Z,21.07
2022-11-06T15:06:46.302Z,19.10
2022-11-06T15:09:39.557Z,16.47
2022-11-06T15:12:08.571Z,24.87
2022-11-06T15:14:35.820Z,16.60
2022-11-06T15:17:05.094Z,12.73
2022-11-06T15:19:48.609Z,21.10
2022-11-06T15:22:28.213Z,18.13
2022-11-06T15:25:11.303Z,18.40
2022-11-06T15:27:46.561Z,24.40
2022-11-06T15:30:19.560Z,21.67
2022-11-06T15:32:49.165Z,23.97
2022-11-06T15:35:22.127Z,26.20
2022-11-06T15:37:53.955Z,26.53
2022-11-06T15:40:36.945Z,26.03
2022-11-06T15:43:30.134Z,33.33
2022-11-06T15:46:15.283Z,40.43
2022-11-06T15:48:44.221Z,28.77
2022-11-06T15:51:26.108Z,38.93
2022-11-06T15:53:54.436Z,34.13
2022-11-06T15:56:29.886Z,31.33
2022-11-06T15:59:14.824Z,30.77
2022-11-06T16:01:47.116Z,29.47
2022-11-06T16:04:22.029Z,29.80
2022-11-06T16:06:51.727Z,31.53
2022-11-06T16:09:25.537Z,29.97
2022-11-06T16:11:54.111Z,20.87
2022-11-06T16:14:22.674Z,30.30
2022-11-06T16:16:53.061Z,34.63
2022-11-06T16:19:32.369Z,21.40
2022-11-06T16:22:11.505Z,24.17
2022-11-06T16:25:04.019Z,24.43
2022-11-06T16:27:36.640Z,24.47
2022-11-06T16:30:06.635Z,23.40
2022-11-06T16:32:41.045Z,20.63
2022-11-06T16:35:32.068Z,24.13
2022-11-06T16:38:49.466Z,30.90
2022-11-06T16:41:37.340Z,24.63
2022-11-06T16:44:37.458Z,22.07
2022-11-06T16:47:10.638Z,24.13
2022-11-06T16:49:42.253Z,22.33
2022-11-06T16:52:32.715Z,25.37
2022-11-06T16:55:04.514Z,25.33
2022-11-06T16:57:57.405Z,30.93
2022-11-06T17:00:29.554Z,40.93
2022-11-06T17:03:18.886Z,40.07
2022-11-06T17:05:57.325Z,48.13
2022-11-06T17:08:30.835Z,41.33
2022-11-06T17:11:14.625Z,51.80
2022-11-06T17:13:44.451Z,43.77
2022-11-06T17:16:16.064Z,44.13
2022-11-06T17:18:44.080Z,38.07
2022-11-06T17:21:15.328Z,45.97
2022-11-06T17:23:43.414Z,45.63
2022-11-06T17:26:17.150Z,38.77
2022-11-06T17:28:44.707Z,49.90
2022-11-06T17:31:15.079Z,43.13
2022-11-06T17:33:43.811Z,44.53
2022-11-06T17:36:26.846Z,49.20
2022-11-06T17:38:56.098Z,51.87
2022-11-06T17:41:31.354Z,51.13
2022-11-06T17:44:03.889Z,56.07
2022-11-06T17:46:38.007Z,56.43
2022-11-06T17:49:06.178Z,54.10
2022-11-06T17:51:53.282Z,54.07
2022-11-06T17:54:23.177Z,56.50
2022-11-06T17:56:51.756Z,57.63
2022-11-06T17:59:19.638Z,56.43
2022-11-06T18:01:48.186Z,55.83
2022-11-06T18:04:16.333Z,61.70
2022-11-06T18:06:49.338Z,63.93
2022-11-06T18:09:17.924Z,56.97
2022-11-06T18:11:46.300Z,59.70
2022-11-06T18:14:15.570Z,59.53
2022-11-06T18:16:44.252Z,51.67
2022-11-06T18:19:16.182Z,58.90
2022-11-06T18:21:44.297Z,56.20
2022-11-06T18:24:11.776Z,53.83
2022-11-06T18:26:40.489Z,55.47
2022-11-06T18:29:11.703Z,56.00
2022-11-06T18:31:42.192Z,55.20
2022-11-06T18:34:20.288Z,57.97
2022-11-06T18:36:51.000Z,55.87
2022-11-06T18:39:19.871Z,46.30
2022-11-06T18:41:50.092Z,52.87
2022-11-06T18:44:20.166Z,52.90
2022-11-06T18:46:49.893Z,56.57
2022-11-06T18:49:21.365Z,57.70
2022-11-06T18:51:52.157Z,58.27
2022-11-06T18:54:21.135Z,57.50
2022-11-06T18:56:49.860Z,56.83
2022-11-06T18:59:21.131Z,55.43
2022-11-06T19:01:49.523Z,66.43
2022-11-06T19:04:18.272Z,61.00
2022-11-06T19:06:47.064Z,70.90
2022-11-06T19:09:14.996Z,65.33
2022-11-06T19:11:42.975Z,54.83
2022-11-06T19:14:11.011Z,67.13
2022-11-06T19:16:39.534Z,55.57
2022-11-06T19:19:07.810Z,60.37
2022-11-06T19:21:36.213Z,53.73
2022-11-06T19:24:05.713Z,47.57
2022-11-06T19:26:36.235Z,59.00
2022-11-06T19:29:08.418Z,53.10
2022-11-06T19:31:37.580Z,54.03
2022-11-06T19:34:06.817Z,57.27
2022-11-06T19:36:35.255Z,54.10
2022-11-06T19:39:03.870Z,55.87
2022-11-06T19:41:31.801Z,52.20
2022-11-06T19:43:59.727Z,56.23
2022-11-06T19:46:33.948Z,53.20
2022-11-06T19:49:06.262Z,53.03
2022-11-06T19:51:41.270Z,52.13
2022-11-06T19:54:10.353Z,62.43
2022-11-06T19:57:29.583Z,54.00
2022-11-06T19:59:26.507Z,50.13
2022-11-06T20:01:54.509Z,59.27
2022-11-06T20:04:22.926Z,58.40
2022-11-06T20:06:52.955Z,51.73
2022-11-06T20:09:21.749Z,54.70
2022-11-06T20:11:52.576Z,60.63
2022-11-06T20:14:22.106Z,56.73
2022-11-06T20:16:51.424Z,51.93
2022-11-06T20:19:19.111Z,67.40
2022-11-06T20:21:46.775Z,55.73
2022-11-06T20:24:14.425Z,57.63
2022-11-06T20:26:42.253Z,59.23
2022-11-06T20:29:09.848Z,54.67
2022-11-06T20:31:38.262Z,55.67
2022-11-06T20:34:05.832Z,62.27
2022-11-06T20:36:35.773Z,60.03
2022-11-06T20:39:04.258Z,60.67
2022-11-06T20:41:32.863Z,65.40
2022-11-06T20:44:00.818Z,68.37
2022-11-06T20:46:29.446Z,67.83
2022-11-06T20:48:58.486Z,60.60
2022-11-06T20:51:27.916Z,63.73
2022-11-06T20:53:55.736Z,69.73
2022-11-06T20:56:27.280Z,76.93
2022-11-06T20:58:55.899Z,61.70
2022-11-06T21:01:29.565Z,62.47
2022-11-06T21:03:58.560Z,68.70
2022-11-06T21:06:27.792Z,65.00
2022-11-06T21:08:56.078Z,59.13
2022-11-06T21:11:27.219Z,62.23
2022-11-06T21:13:54.964Z,57.47
2022-11-06T21:16:32.709Z,66.77
2022-11-06T21:19:01.774Z,81.67
2022-11-06T21:21:33.397Z,77.43
2022-11-06T21:24:02.541Z,66.23
2022-11-06T21:26:34.595Z,73.67
2022-11-06T21:29:06.188Z,73.00
2022-11-06T21:31:34.923Z,81.47
2022-11-06T21:34:04.121Z,70.57
2022-11-06T21:36:38.178Z,98.00
2022-11-06T21:39:19.057Z,87.40
2022-11-06T21:41:49.799Z,105.37
2022-11-06T21:44:19.041Z,106.80
2022-11-06T21:46:47.053Z,100.47
2022-11-06T21:49:15.015Z,93.37
2022-11-06T21:51:42.991Z,96.20
2022-11-06T21:54:31.190Z,90.00
2022-11-06T21:56:59.131Z,84.33
2022-11-06T21:59:28.601Z,87.73
2022-11-06T22:01:56.656Z,83.30
2022-11-06T22:04:24.513Z,72.30
2022-11-06T22:06:52.800Z,88.67
2022-11-06T22:09:24.790Z,84.63
2022-11-06T22:11:53.123Z,133.20
2022-11-06T22:14:20.656Z,89.70
2022-11-06T22:16:48.497Z,97.97
2022-11-06T22:19:17.784Z,128.27
2022-11-06T22:21:45.947Z,97.00
2022-11-06T22:24:14.558Z,152.57
2022-11-06T22:26:42.324Z,157.10
2022-11-06T22:29:13.549Z,94.27
2022-11-06T22:31:41.495Z,95.00
2022-11-06T22:34:12.360Z,114.60
2022-11-06T22:36:41.313Z,117.20
2022-11-06T22:39:10.265Z,98.83
2022-11-06T22:41:38.894Z,76.57
2022-11-06T22:44:07.065Z,71.97
2022-11-06T22:46:35.397Z,77.30
2022-11-06T22:49:04.382Z,84.80
2022-11-06T22:51:33.567Z,71.87
2022-11-06T22:54:01.895Z,73.83
2022-11-06T22:56:31.220Z,63.60
2022-11-06T22:59:01.830Z,72.40
2022-11-06T23:01:31.180Z,73.53
2022-11-06T23:04:03.813Z,71.93
2022-11-06T23:06:32.491Z,59.27
2022-11-06T23:09:00.221Z,70.87
2022-11-06T23:11:29.133Z,92.63
2022-11-06T23:13:57.733Z,142.00
2022-11-06T23:16:49.645Z,97.47
2022-11-06T23:19:19.618Z,90.60
2022-11-06T23:21:47.001Z,85.20
2022-11-06T23:24:15.453Z,67.40
2022-11-06T23:26:44.343Z,54.10
2022-11-06T23:29:12.222Z,54.67
2022-11-06T23:31:41.382Z,57.90
2022-11-06T23:34:09.162Z,67.23
2022-11-06T23:36:36.488Z,67.63
2022-11-06T23:39:05.413Z,65.47
2022-11-06T23:41:46.215Z,53.40
2022-11-06T23:44:33.758Z,55.10
2022-11-06T23:47:01.695Z,68.73
2022-11-06T23:49:29.712Z,57.10
2022-11-06T23:51:57.717Z,69.07
2022-11-06T23:54:25.829Z,58.13
2022-11-06T23:56:53.131Z,59.53
2022-11-06T23:59:21.383Z,49.60
